Red Lake, Texas
Current Conditions -  °F | °C
As of 10:55 AM on Tuesday 27 Jan 2015 (Local Time) from KPSN Reporting Station
Clear Clear  
Wind Chill: 19°   Ceiling: Unl
Heat Index: 19°   Visibility: 10mi
Dew Point:   Wind: 0mph
Humidity: 44%   Direction: NA
Pressure: 30.2"   Gusts: NA
Location:  31.5818°N, 95.8921°W
Report Text: KPSN 271655Z AUTO 00000KT 10SM CLR 18/06 A3020 RMK AO2 T01900066
Loading
Personal Weather Stations






























Interactive Weather Map New forecast layout! Learn more

10-Day Weather Forecast

Advertisements
Track Severe Weather on mobile